Time;durP1;ratioP1;P1;durP2;ratioP2;P2;SDS_P1;SDS_P2;PMS_P1;PMS_P2;Temp;Humidity;BMP_temperature;BMP_pressure;BME280_temperature;BME280_humidity;BME280_pressure;Samples;Min_cycle;Max_cycle;Signal;HPM_P1;HPM_P2
2022/06/05 00:01:23;;;;;;;5.82;4.28;;;15.90;99.90;;;;;;5009850;28;20187;-85
2022/06/05 00:04:08;;;;;;;8.18;4.47;;;15.90;99.90;;;;;;5008403;28;20187;-85
2022/06/05 00:06:50;;;;;;;8.02;4.53;;;15.90;99.90;;;;;;5014336;28;20187;-86
2022/06/05 00:09:49;;;;;;;6.18;4.50;;;15.80;99.90;;;;;;5016734;28;20187;-87
2022/06/05 00:12:18;;;;;;;6.07;3.85;;;15.80;99.90;;;;;;5016695;28;20178;-86
2022/06/05 00:14:52;;;;;;;5.15;4.18;;;15.80;99.90;;;;;;5018051;28;20234;-86
2022/06/05 00:17:20;;;;;;;5.90;4.10;;;15.80;99.90;;;;;;5018192;28;20187;-86
2022/06/05 00:19:49;;;;;;;6.50;4.90;;;15.70;99.90;;;;;;5016232;28;20186;-86
2022/06/05 00:22:15;;;;;;;6.47;5.18;;;15.70;99.90;;;;;;5024661;28;20210;-85
2022/06/05 00:24:42;;;;;;;6.90;4.53;;;15.60;99.90;;;;;;5016695;28;20187;-86
2022/06/05 00:27:13;;;;;;;6.00;4.53;;;15.50;99.90;;;;;;5016256;28;20647;-86
2022/06/05 00:29:55;;;;;;;5.85;4.20;;;15.50;99.90;;;;;;5016972;28;20191;-86
2022/06/05 00:32:34;;;;;;;7.70;4.97;;;15.50;99.90;;;;;;5017531;28;20183;-85
2022/06/05 00:35:00;;;;;;;5.63;3.92;;;15.50;99.90;;;;;;5015291;28;20310;-85
2022/06/05 00:37:48;;;;;;;5.95;4.40;;;15.50;99.90;;;;;;5015840;28;20225;-83
2022/06/05 00:40:52;;;;;;;5.10;4.25;;;15.40;99.90;;;;;;5014467;28;20731;-84
2022/06/05 00:43:22;;;;;;;6.65;4.30;;;15.40;99.90;;;;;;5005384;28;20199;-86
2022/06/05 00:45:47;;;;;;;5.30;4.53;;;15.40;99.90;;;;;;5029424;28;20179;-86
2022/06/05 00:48:14;;;;;;;7.18;4.30;;;15.30;99.90;;;;;;5015772;28;20206;-85
2022/06/05 00:50:42;;;;;;;4.82;4.32;;;15.30;99.90;;;;;;5314919;22;20292;-83
2022/06/05 00:53:10;;;;;;;5.82;4.30;;;15.30;99.90;;;;;;5023752;28;20186;-85
2022/06/05 00:55:42;;;;;;;5.10;4.32;;;15.30;99.90;;;;;;5031949;28;20305;-85
2022/06/05 00:58:08;;;;;;;7.50;4.20;;;15.30;99.90;;;;;;5023752;28;20201;-85
2022/06/05 01:00:38;;;;;;;7.20;4.75;;;15.20;99.90;;;;;;5032314;28;20191;-86
2022/06/05 01:03:09;;;;;;;5.03;4.00;;;15.20;99.90;;;;;;5035652;28;20182;-85
2022/06/05 01:05:35;;;;;;;8.02;4.70;;;15.10;99.90;;;;;;5032782;28;20680;-85
2022/06/05 01:08:01;;;;;;;5.25;4.18;;;15.10;99.90;;;;;;5035820;28;20661;-85
2022/06/05 01:10:56;;;;;;;7.95;4.72;;;15.10;99.90;;;;;;5035451;28;20201;-85
2022/06/05 01:13:37;;;;;;;5.20;3.78;;;15.00;99.90;;;;;;4991088;28;20247;-86
2022/06/05 01:16:32;;;;;;;7.70;3.85;;;15.00;99.90;;;;;;5034708;28;20356;-86
2022/06/05 01:19:18;;;;;;;6.78;3.90;;;15.00;99.90;;;;;;5035380;28;20187;-85
2022/06/05 01:22:08;;;;;;;5.80;3.92;;;15.00;99.90;;;;;;5033647;28;20553;-85
2022/06/05 01:24:46;;;;;;;8.48;4.47;;;15.00;99.90;;;;;;5035035;28;20171;-85
2022/06/05 01:27:17;;;;;;;9.70;4.30;;;14.80;99.90;;;;;;5033856;28;20186;-85
2022/06/05 01:29:50;;;;;;;4.65;4.13;;;14.80;99.90;;;;;;5051477;28;20177;-87
2022/06/05 01:32:44;;;;;;;6.57;4.68;;;14.70;99.90;;;;;;5036112;28;20233;-85
2022/06/05 01:35:31;;;;;;;7.13;4.72;;;14.70;99.90;;;;;;5034122;28;20298;-86
2022/06/05 01:38:09;;;;;;;8.07;4.72;;;14.60;99.90;;;;;;5034763;28;20210;-86
2022/06/05 01:40:40;;;;;;;6.32;5.13;;;14.50;99.90;;;;;;5033514;28;20268;-82
2022/06/05 01:43:17;;;;;;;6.68;4.13;;;14.50;99.90;;;;;;5035208;28;20248;-85
2022/06/05 01:45:48;;;;;;;6.28;4.47;;;14.50;99.90;;;;;;5034158;28;20545;-85
2022/06/05 01:48:39;;;;;;;6.15;4.65;;;14.50;99.90;;;;;;5035161;28;20191;-84
2022/06/05 01:51:10;;;;;;;6.32;4.63;;;14.50;99.90;;;;;;5033040;28;20210;-82
2022/06/05 01:53:43;;;;;;;5.72;4.50;;;14.50;99.90;;;;;;5033547;28;20617;-85
2022/06/05 01:56:22;;;;;;;6.82;4.72;;;14.40;99.90;;;;;;5034697;28;20244;-84
2022/06/05 01:58:58;;;;;;;6.88;3.95;;;14.40;99.90;;;;;;5034681;28;20182;-83
2022/06/05 02:01:28;;;;;;;6.15;4.50;;;14.40;99.90;;;;;;5034865;28;20269;-84
2022/06/05 02:04:14;;;;;;;7.85;4.88;;;14.30;99.90;;;;;;5034038;28;20175;-85
2022/06/05 02:06:53;;;;;;;5.22;4.38;;;14.30;99.90;;;;;;5033536;28;20210;-82
2022/06/05 02:09:42;;;;;;;4.82;3.92;;;14.40;99.90;;;;;;5033977;28;20186;-83
2022/06/05 02:12:09;;;;;;;6.22;4.65;;;14.40;99.90;;;;;;5031139;28;20190;-85
2022/06/05 02:14:37;;;;;;;4.97;4.32;;;14.40;99.90;;;;;;5033431;28;20539;-84
2022/06/05 02:17:05;;;;;;;5.15;4.60;;;14.30;99.90;;;;;;5033669;28;21094;-84
2022/06/05 02:19:33;;;;;;;5.47;4.28;;;14.30;99.90;;;;;;5033903;28;20235;-84
2022/06/05 02:22:04;;;;;;;6.22;3.88;;;14.40;99.90;;;;;;5033466;28;20535;-85
2022/06/05 02:24:31;;;;;;;5.00;3.63;;;14.30;99.90;;;;;;5034516;28;20194;-85
2022/06/05 02:26:59;;;;;;;5.82;4.05;;;14.30;99.90;;;;;;5035506;28;20163;-85
2022/06/05 02:29:26;;;;;;;5.88;4.18;;;14.30;99.90;;;;;;5032898;28;20178;-83
2022/06/05 02:32:09;;;;;;;4.80;4.20;;;14.20;99.90;;;;;;5032285;28;20182;-86
2022/06/05 02:34:57;;;;;;;5.75;4.10;;;14.30;99.90;;;;;;5033727;28;20692;-86
2022/06/05 02:37:50;;;;;;;4.93;4.13;;;14.30;99.90;;;;;;5032835;28;20210;-85
2022/06/05 02:40:36;;;;;;;4.88;3.92;;;14.30;99.90;;;;;;5033006;28;20582;-85
2022/06/05 02:43:19;;;;;;;4.18;3.67;;;14.20;99.90;;;;;;5018410;28;20186;-85
2022/06/05 02:46:22;;;;;;;5.80;3.70;;;14.10;99.90;;;;;;5034944;28;20245;-85
2022/06/05 02:48:58;;;;;;;6.28;4.15;;;14.10;99.90;;;;;;5020696;28;20198;-85
2022/06/05 02:51:39;;;;;;;5.32;4.07;;;14.10;99.90;;;;;;5032567;28;20548;-85
2022/06/05 02:54:06;;;;;;;7.63;4.00;;;14.00;99.90;;;;;;5032890;28;20520;-85
2022/06/05 02:56:33;;;;;;;6.05;3.97;;;14.00;99.90;;;;;;5033102;28;20244;-84
2022/06/05 02:59:02;;;;;;;4.72;4.05;;;14.00;99.90;;;;;;5032838;28;20584;-85
2022/06/05 03:04:12;;;;;;;5.63;3.90;;;13.80;99.90;;;;;;5034767;28;20186;-84
2022/06/05 03:06:41;;;;;;;5.07;4.03;;;13.80;99.90;;;;;;5049312;28;20187;-85
2022/06/05 03:09:07;;;;;;;5.25;4.03;;;13.80;99.90;;;;;;5049190;28;20178;-85
2022/06/05 03:11:33;;;;;;;4.75;3.92;;;13.70;99.90;;;;;;5034107;28;20221;-84
2022/06/05 03:14:01;;;;;;;6.05;4.60;;;13.70;99.90;;;;;;5033222;28;20593;-85
2022/06/05 03:16:31;;;;;;;5.38;4.38;;;13.80;99.90;;;;;;5033726;28;20256;-84
2022/06/05 03:18:56;;;;;;;4.70;4.20;;;13.70;99.90;;;;;;5033027;28;20166;-85
2022/06/05 03:21:22;;;;;;;6.38;4.10;;;13.70;99.90;;;;;;5026047;28;20205;-85
2022/06/05 03:23:49;;;;;;;6.55;4.28;;;13.70;99.90;;;;;;5014986;28;20522;-84
2022/06/05 03:26:15;;;;;;;5.50;3.90;;;13.70;99.90;;;;;;5013301;28;20579;-84
2022/06/05 03:28:41;;;;;;;5.78;4.65;;;13.60;99.90;;;;;;5029754;28;20197;-85
2022/06/05 03:31:08;;;;;;;6.30;4.30;;;13.70;99.90;;;;;;5032228;28;20178;-85
2022/06/05 03:33:36;;;;;;;8.15;3.92;;;13.70;99.90;;;;;;5014421;28;20190;-83
2022/06/05 03:36:10;;;;;;;4.53;3.80;;;13.70;99.90;;;;;;5029316;28;20267;-85
2022/06/05 03:38:37;;;;;;;7.15;4.03;;;13.70;99.90;;;;;;5032747;28;20180;-84
2022/06/05 03:41:04;;;;;;;4.13;3.72;;;13.80;99.90;;;;;;5032449;28;20529;-85
2022/06/05 03:43:32;;;;;;;5.82;3.75;;;13.80;99.90;;;;;;5033544;28;20194;-85
2022/06/05 03:46:06;;;;;;;5.13;3.97;;;13.70;99.90;;;;;;5036388;28;20678;-86
2022/06/05 03:48:32;;;;;;;6.05;3.70;;;13.70;99.90;;;;;;5038488;28;20201;-85
2022/06/05 03:50:58;;;;;;;6.43;4.60;;;13.70;99.90;;;;;;5035631;28;20218;-85
2022/06/05 03:53:24;;;;;;;9.40;4.00;;;13.70;99.90;;;;;;5036915;28;20731;-85
2022/06/05 03:55:50;;;;;;;5.80;4.15;;;13.80;99.90;;;;;;5038089;28;20225;-85
2022/06/05 03:58:16;;;;;;;4.93;3.60;;;13.80;99.90;;;;;;5036824;28;20182;-84
2022/06/05 04:00:43;;;;;;;4.85;3.90;;;13.70;99.90;;;;;;5037025;28;20268;-86
2022/06/05 04:03:08;;;;;;;4.65;4.10;;;13.80;99.90;;;;;;5018281;28;20179;-85
2022/06/05 04:05:35;;;;;;;4.18;3.78;;;13.80;99.90;;;;;;5050217;28;20194;-85
2022/06/05 04:08:01;;;;;;;5.10;3.60;;;13.80;99.90;;;;;;5052587;28;20221;-85
2022/06/05 04:10:26;;;;;;;4.80;3.53;;;13.90;99.90;;;;;;5053237;28;20178;-85
2022/06/05 04:12:52;;;;;;;6.75;3.60;;;13.90;99.90;;;;;;5052180;28;20197;-85
2022/06/05 04:15:19;;;;;;;9.82;4.10;;;13.80;99.90;;;;;;5032437;28;20218;-85
2022/06/05 04:17:45;;;;;;;4.68;3.97;;;13.80;99.90;;;;;;5017960;28;20538;-85
2022/06/05 04:20:12;;;;;;;6.90;3.47;;;13.70;99.90;;;;;;5033355;28;20186;-84
2022/06/05 04:22:39;;;;;;;5.13;3.63;;;13.70;99.90;;;;;;5035478;28;20179;-84
2022/06/05 04:25:08;;;;;;;4.00;3.28;;;13.80;99.90;;;;;;5021702;28;20606;-85
2022/06/05 04:27:34;;;;;;;4.25;3.60;;;13.80;99.90;;;;;;5033740;28;20190;-85
2022/06/05 04:30:00;;;;;;;4.88;4.22;;;13.80;99.90;;;;;;5035806;28;20187;-85
2022/06/05 04:32:26;;;;;;;5.28;3.88;;;13.90;99.90;;;;;;5036840;28;20182;-85
2022/06/05 04:34:52;;;;;;;6.65;4.05;;;13.90;99.90;;;;;;5034228;28;20199;-85
2022/06/05 04:37:18;;;;;;;6.72;4.00;;;14.00;99.90;;;;;;5036678;28;20261;-86
2022/06/05 04:39:43;;;;;;;4.35;3.75;;;14.10;99.90;;;;;;5037366;28;20259;-85
2022/06/05 04:42:09;;;;;;;4.63;3.50;;;14.20;99.90;;;;;;5036584;28;20190;-85
2022/06/05 04:44:35;;;;;;;5.60;3.25;;;14.30;99.90;;;;;;5037088;28;20228;-86
2022/06/05 04:47:01;;;;;;;4.78;3.20;;;14.40;99.90;;;;;;5035364;28;20538;-84
2022/06/05 04:49:27;;;;;;;5.90;3.17;;;14.50;99.90;;;;;;5036828;28;20178;-83
2022/06/05 04:51:53;;;;;;;4.43;3.40;;;14.60;99.90;;;;;;5036313;28;20249;-85
2022/06/05 04:54:19;;;;;;;4.32;3.05;;;14.80;99.90;;;;;;5034493;28;20233;-84
2022/06/05 04:56:45;;;;;;;4.43;3.20;;;14.80;99.90;;;;;;5034969;28;20249;-83
2022/06/05 04:59:12;;;;;;;6.65;3.33;;;14.90;99.90;;;;;;5023715;28;20183;-83
2022/06/05 05:01:39;;;;;;;4.97;3.65;;;14.90;99.90;;;;;;5020740;28;20193;-84
2022/06/05 05:04:07;;;;;;;3.97;2.85;;;14.90;99.90;;;;;;5034454;28;20195;-83
2022/06/05 05:06:34;;;;;;;6.57;3.25;;;14.90;99.90;;;;;;5036350;28;20185;-85
2022/06/05 05:09:00;;;;;;;3.78;2.95;;;15.00;99.90;;;;;;5036513;28;20542;-84
2022/06/05 05:11:26;;;;;;;4.47;3.10;;;15.00;99.90;;;;;;5034173;28;20195;-84
2022/06/05 05:13:54;;;;;;;3.97;2.75;;;15.10;99.90;;;;;;5034509;28;20182;-85
2022/06/05 05:16:21;;;;;;;4.22;3.25;;;15.20;99.90;;;;;;5034733;28;20233;-83
2022/06/05 05:18:46;;;;;;;3.78;3.00;;;15.30;99.90;;;;;;5035805;28;20183;-85
2022/06/05 05:21:15;;;;;;;3.97;3.30;;;15.30;99.90;;;;;;5034516;28;20308;-84
2022/06/05 05:23:42;;;;;;;5.97;3.15;;;15.40;99.90;;;;;;5035725;28;20183;-85
2022/06/05 05:26:13;;;;;;;5.15;3.10;;;15.40;99.90;;;;;;5051148;28;20236;-84
2022/06/05 05:28:40;;;;;;;3.65;3.13;;;15.40;99.90;;;;;;5050716;28;20293;-84
2022/06/05 05:31:11;;;;;;;3.78;3.13;;;15.50;99.90;;;;;;5031207;28;20179;-84
2022/06/05 05:33:38;;;;;;;4.38;3.03;;;15.50;99.90;;;;;;5031054;28;20195;-83
2022/06/05 05:36:04;;;;;;;6.10;3.22;;;15.60;99.90;;;;;;5033682;28;20210;-84
2022/06/05 05:38:30;;;;;;;3.47;3.13;;;15.70;99.90;;;;;;5032708;28;20186;-84
2022/06/05 05:43:40;;;;;;;6.32;3.42;;;15.80;99.90;;;;;;5027781;28;20200;-87
2022/06/05 05:46:10;;;;;;;5.30;3.40;;;15.80;99.90;;;;;;5034791;28;20601;-86
2022/06/05 05:48:36;;;;;;;4.00;3.20;;;15.80;99.90;;;;;;5037283;28;20210;-88
2022/06/05 05:51:02;;;;;;;4.97;3.28;;;15.90;99.90;;;;;;5039111;28;20657;-89
2022/06/05 05:53:28;;;;;;;4.13;2.78;;;16.00;99.90;;;;;;5035036;28;20197;-83
2022/06/05 05:55:54;;;;;;;4.50;3.28;;;16.00;99.90;;;;;;5051586;28;20265;-87
2022/06/05 05:58:19;;;;;;;4.07;3.08;;;16.10;99.90;;;;;;5035883;28;20580;-86
2022/06/05 06:00:45;;;;;;;5.78;3.65;;;16.20;99.90;;;;;;5050980;28;20208;-88
2022/06/05 06:03:10;;;;;;;3.70;3.10;;;16.30;99.90;;;;;;5033459;28;20274;-87
2022/06/05 06:05:40;;;;;;;4.15;3.15;;;16.30;99.90;;;;;;5026698;28;20217;-88
2022/06/05 06:08:06;;;;;;;3.53;2.85;;;16.40;99.90;;;;;;5025652;28;20269;-89
2022/06/05 06:10:32;;;;;;;4.68;3.00;;;16.50;99.90;;;;;;5046845;28;20273;-89
2022/06/05 06:12:57;;;;;;;4.32;3.13;;;16.60;99.90;;;;;;5035633;28;20201;-88
2022/06/05 06:15:24;;;;;;;4.20;3.20;;;16.60;99.90;;;;;;5035472;28;20217;-88
2022/06/05 06:17:50;;;;;;;4.15;2.88;;;16.70;99.90;;;;;;5035530;28;20213;-89
2022/06/05 06:20:15;;;;;;;4.07;2.95;;;16.80;99.90;;;;;;5050561;28;20214;-87
2022/06/05 06:22:41;;;;;;;5.90;3.38;;;16.90;99.90;;;;;;5050940;28;20265;-84
2022/06/05 06:25:14;;;;;;;4.22;3.03;;;16.90;99.90;;;;;;5049728;28;20191;-87
2022/06/05 06:27:40;;;;;;;3.45;2.80;;;17.00;99.90;;;;;;5035439;28;20189;-88
2022/06/05 06:30:06;;;;;;;5.05;2.80;;;17.10;99.90;;;;;;5034063;28;20186;-87
2022/06/05 06:32:31;;;;;;;3.20;2.70;;;17.20;99.90;;;;;;5034256;28;20178;-85
2022/06/05 06:34:59;;;;;;;3.92;3.00;;;17.30;99.90;;;;;;5034890;28;20217;-84
2022/06/05 06:37:24;;;;;;;3.50;2.95;;;17.40;99.90;;;;;;5034675;28;20177;-89
2022/06/05 06:39:50;;;;;;;3.42;3.13;;;17.60;99.90;;;;;;5032784;28;20174;-87
2022/06/05 06:42:16;;;;;;;4.07;2.75;;;17.60;99.90;;;;;;5032814;28;20245;-83
2022/06/05 06:44:41;;;;;;;2.97;2.63;;;17.70;99.90;;;;;;5032981;28;20613;-84
2022/06/05 06:47:07;;;;;;;4.25;2.70;;;17.80;99.90;;;;;;5033175;28;20178;-81
2022/06/05 06:49:35;;;;;;;4.28;2.97;;;17.90;99.90;;;;;;5025084;28;20175;-86
2022/06/05 06:52:01;;;;;;;5.00;2.92;;;18.00;99.90;;;;;;5027179;28;20234;-85
2022/06/05 06:54:27;;;;;;;3.58;2.70;;;18.20;99.90;;;;;;5021741;28;20179;-86
2022/06/05 06:56:54;;;;;;;4.55;2.92;;;18.30;99.90;;;;;;5030092;28;20241;-86
2022/06/05 06:59:20;;;;;;;3.15;2.72;;;18.50;99.90;;;;;;5043693;28;20194;-90
2022/06/05 07:01:46;;;;;;;3.83;2.53;;;18.70;99.10;;;;;;5032937;28;20178;-85
2022/06/05 07:04:12;;;;;;;3.40;2.47;;;18.80;99.10;;;;;;5033559;28;20257;-87
2022/06/05 07:06:38;;;;;;;4.43;2.97;;;19.00;99.10;;;;;;5032602;28;20186;-87
2022/06/05 07:09:03;;;;;;;3.58;2.70;;;19.20;98.60;;;;;;5034573;28;20166;-86
2022/06/05 07:11:29;;;;;;;3.67;2.45;;;19.30;98.30;;;;;;5034196;28;20197;-84
2022/06/05 07:13:56;;;;;;;3.95;2.50;;;19.40;98.10;;;;;;5030839;28;20190;-84
2022/06/05 07:16:22;;;;;;;3.58;2.60;;;19.60;98.60;;;;;;5025657;28;20214;-85
2022/06/05 07:18:48;;;;;;;2.72;2.53;;;19.80;98.00;;;;;;5018702;28;20241;-84
2022/06/05 07:21:22;;;;;;;4.10;2.45;;;19.90;98.10;;;;;;5038318;28;20189;-87
2022/06/05 07:23:48;;;;;;;3.65;2.60;;;20.00;97.70;;;;;;5027858;28;20186;-84
2022/06/05 07:26:17;;;;;;;3.92;2.10;;;20.10;96.80;;;;;;5030242;28;20193;-83
2022/06/05 07:28:43;;;;;;;4.40;2.55;;;20.20;96.30;;;;;;5031015;28;20179;-84
2022/06/05 07:31:11;;;;;;;4.20;2.50;;;20.20;96.20;;;;;;5030383;28;20236;-86
2022/06/05 07:33:37;;;;;;;2.58;2.30;;;20.40;96.20;;;;;;5031716;28;20224;-87
2022/06/05 07:36:06;;;;;;;3.58;2.25;;;20.50;95.10;;;;;;5029899;28;20222;-90
2022/06/05 07:38:34;;;;;;;6.30;2.47;;;20.60;95.50;;;;;;5034261;28;20159;-90
2022/06/05 07:41:01;;;;;;;6.35;2.50;;;20.60;94.50;;;;;;5033728;28;20187;-88
2022/06/05 07:43:27;;;;;;;2.97;2.20;;;20.80;94.90;;;;;;5027355;28;20638;-86
2022/06/05 07:46:05;;;;;;;6.00;2.20;;;20.90;95.10;;;;;;5033207;28;20205;-86
2022/06/05 07:48:31;;;;;;;4.03;2.10;;;21.00;94.90;;;;;;5033248;28;20189;-87
2022/06/05 07:56:34;;;;;;;2.13;1.92;;;21.30;93.40;;;;;;5034627;28;20225;-89
2022/06/05 07:59:00;;;;;;;3.55;2.10;;;21.50;93.50;;;;;;5033667;28;20916;-87
2022/06/05 08:01:26;;;;;;;3.90;1.98;;;21.50;93.80;;;;;;5032020;28;20183;-93
2022/06/05 08:03:52;;;;;;;3.65;2.05;;;21.70;93.30;;;;;;5033898;28;20621;-90
2022/06/05 08:06:21;;;;;;;2.58;1.95;;;21.70;93.40;;;;;;5047201;28;20187;-89
2022/06/05 08:08:47;;;;;;;3.67;2.25;;;21.80;93.30;;;;;;5028102;28;20183;-88
2022/06/05 08:11:12;;;;;;;4.32;2.03;;;21.80;93.00;;;;;;5031806;28;20854;-90
2022/06/05 08:13:38;;;;;;;2.30;2.05;;;22.00;93.20;;;;;;5033142;28;20181;-91
2022/06/05 08:16:04;;;;;;;3.83;2.30;;;22.10;93.30;;;;;;5032129;28;20203;-93
2022/06/05 08:18:30;;;;;;;6.00;2.25;;;22.20;92.80;;;;;;5034035;28;20175;-89
2022/06/05 08:20:56;;;;;;;3.53;2.28;;;22.30;93.40;;;;;;5034039;28;20519;-90
2022/06/05 08:23:22;;;;;;;2.20;2.00;;;22.40;92.40;;;;;;5032849;28;22006;-94
2022/06/05 08:25:48;;;;;;;3.17;2.10;;;22.50;92.60;;;;;;5032192;28;20206;-88
2022/06/05 08:28:14;;;;;;;2.67;2.28;;;22.40;92.60;;;;;;5034227;28;20189;-90
2022/06/05 08:30:40;;;;;;;5.10;2.58;;;22.50;92.30;;;;;;5034006;28;20186;-91
2022/06/05 08:33:07;;;;;;;3.17;2.30;;;22.50;92.60;;;;;;5035004;28;20201;-90
2022/06/05 08:35:33;;;;;;;2.22;2.03;;;22.60;93.00;;;;;;5034989;28;20578;-88
2022/06/05 08:44:02;;;;;;;5.10;2.08;;;22.70;92.40;;;;;;5035333;28;20281;-89
2022/06/05 08:46:43;;;;;;;3.72;2.42;;;22.80;92.60;;;;;;5043087;28;20273;-89
2022/06/05 08:49:21;;;;;;;2.97;2.08;;;22.90;92.70;;;;;;5036464;28;20178;-90
2022/06/05 08:51:56;;;;;;;2.33;2.10;;;23.00;92.80;;;;;;5026294;28;20256;-85
2022/06/05 08:54:38;;;;;;;4.22;2.55;;;23.10;92.50;;;;;;5017996;28;20171;-89
2022/06/05 08:57:22;;;;;;;2.72;2.15;;;22.90;91.70;;;;;;5018007;28;20176;-92
2022/06/05 09:00:08;;;;;;;3.15;2.13;;;23.10;92.60;;;;;;5034901;28;20188;-88
2022/06/05 09:03:08;;;;;;;4.30;2.00;;;23.20;92.00;;;;;;5037138;28;20233;-91
2022/06/05 09:05:39;;;;;;;2.33;1.83;;;23.20;92.00;;;;;;5020927;28;20573;-89
2022/06/05 09:08:21;;;;;;;3.08;2.00;;;23.50;91.70;;;;;;5035071;28;20217;-87
2022/06/05 09:10:48;;;;;;;3.45;2.67;;;23.60;92.20;;;;;;5034812;28;20225;-90
2022/06/05 09:13:36;;;;;;;2.65;2.33;;;23.70;91.10;;;;;;5035470;28;20189;-87
2022/06/05 09:16:05;;;;;;;2.70;2.28;;;23.70;92.30;;;;;;5030659;28;20599;-89
2022/06/05 09:18:46;;;;;;;2.60;2.40;;;23.80;91.80;;;;;;5033994;28;20179;-88
2022/06/05 09:21:36;;;;;;;2.83;2.20;;;23.80;91.20;;;;;;5034070;28;20193;-89
2022/06/05 09:24:23;;;;;;;6.50;2.30;;;24.00;90.90;;;;;;5034726;28;20542;-85
2022/06/05 09:26:58;;;;;;;2.63;2.08;;;24.10;90.10;;;;;;5045987;28;20182;-86
2022/06/05 09:29:27;;;;;;;2.85;2.20;;;24.20;90.10;;;;;;5043079;28;20178;-93
2022/06/05 09:32:19;;;;;;;2.40;2.20;;;24.10;90.30;;;;;;5032539;28;20182;-92
2022/06/05 09:34:54;;;;;;;2.63;2.30;;;24.10;90.80;;;;;;5018672;28;20207;-90
2022/06/05 09:37:51;;;;;;;4.55;2.40;;;24.00;90.40;;;;;;5034135;28;20508;-90
2022/06/05 09:40:20;;;;;;;3.05;2.33;;;24.00;90.60;;;;;;5030640;28;20236;-88
2022/06/05 09:43:23;;;;;;;3.38;2.20;;;24.10;90.60;;;;;;5034418;28;20182;-93
2022/06/05 09:45:51;;;;;;;2.72;2.10;;;24.10;90.70;;;;;;5021462;28;20186;-89
2022/06/05 09:48:50;;;;;;;2.53;2.20;;;24.10;90.20;;;;;;5034482;28;20175;-91
2022/06/05 09:51:17;;;;;;;2.58;2.10;;;24.00;88.60;;;;;;5029948;28;20281;-85
2022/06/05 09:53:50;;;;;;;3.65;2.60;;;24.00;89.50;;;;;;5020752;28;20310;-91
2022/06/05 09:56:27;;;;;;;2.85;2.42;;;24.10;89.60;;;;;;5032960;28;20248;-93
2022/06/05 09:59:08;;;;;;;3.58;2.13;;;24.20;89.90;;;;;;5036101;28;20684;-87
2022/06/05 10:01:46;;;;;;;6.60;2.08;;;24.20;88.20;;;;;;5033479;28;20522;-93
2022/06/05 10:04:12;;;;;;;2.88;2.30;;;24.20;89.60;;;;;;5028195;28;20264;-91
2022/06/05 10:06:46;;;;;;;1.90;1.75;;;24.20;88.30;;;;;;5035050;28;20705;-87
2022/06/05 10:09:20;;;;;;;2.80;1.90;;;24.10;88.10;;;;;;5032787;28;20562;-86
2022/06/05 10:12:10;;;;;;;2.10;1.90;;;23.90;89.40;;;;;;5036135;28;20158;-87
2022/06/05 10:15:18;;;;;;;2.40;2.00;;;23.90;87.20;;;;;;5033554;28;20212;-88
2022/06/05 10:17:49;;;;;;;3.83;2.40;;;23.90;89.10;;;;;;5036147;28;20166;-92
2022/06/05 10:20:30;;;;;;;4.75;2.13;;;24.10;88.60;;;;;;5033849;28;20174;-84
2022/06/05 10:23:03;;;;;;;4.50;2.30;;;24.20;87.10;;;;;;5033648;28;20624;-88
2022/06/05 10:25:35;;;;;;;2.40;2.20;;;24.30;87.10;;;;;;5033261;28;20182;-89
2022/06/05 10:28:23;;;;;;;5.50;2.40;;;24.40;87.40;;;;;;5052199;28;20171;-89
2022/06/05 10:31:06;;;;;;;2.50;2.10;;;24.60;89.90;;;;;;5047620;28;20213;-90
2022/06/05 10:33:40;;;;;;;2.30;2.10;;;24.90;86.20;;;;;;5034176;28;20272;-87
2022/06/05 10:36:10;;;;;;;3.38;1.80;;;25.00;85.20;;;;;;5034667;28;20210;-92
2022/06/05 10:39:03;;;;;;;2.72;2.20;;;25.10;87.60;;;;;;5032280;28;20245;-92
2022/06/05 10:42:02;;;;;;;4.25;2.40;;;25.40;85.20;;;;;;5034061;28;20532;-87
2022/06/05 10:44:35;;;;;;;4.72;2.25;;;25.60;84.00;;;;;;5032464;28;20520;-90
2022/06/05 10:47:10;;;;;;;4.38;2.40;;;25.60;84.80;;;;;;5031113;28;20194;-87
2022/06/05 10:50:01;;;;;;;4.75;2.50;;;25.40;84.20;;;;;;5033335;28;20210;-93
2022/06/05 10:53:01;;;;;;;2.55;2.10;;;25.20;83.80;;;;;;5033223;28;20230;-88
2022/06/05 10:55:42;;;;;;;2.50;2.30;;;25.20;86.90;;;;;;5032688;28;20214;-89
2022/06/05 10:58:50;;;;;;;4.57;2.10;;;25.30;86.00;;;;;;5034424;28;20614;-84
2022/06/05 11:01:41;;;;;;;2.90;2.17;;;25.50;83.20;;;;;;5024605;28;20218;-87
2022/06/05 11:04:18;;;;;;;3.15;2.40;;;25.60;83.40;;;;;;5023952;28;20209;-93
2022/06/05 11:07:18;;;;;;;2.30;2.10;;;25.50;83.10;;;;;;5034460;28;20234;-92
2022/06/05 11:09:50;;;;;;;3.20;2.30;;;25.50;84.40;;;;;;5033023;28;20182;-88
2022/06/05 11:15:27;;;;;;;2.35;2.15;;;25.80;85.70;;;;;;5028346;28;20244;-85
2022/06/05 11:18:43;;;;;;;3.47;2.30;;;25.80;83.50;;;;;;5034486;28;20190;-89
2022/06/05 11:21:10;;;;;;;3.67;2.30;;;25.70;85.20;;;;;;5030276;28;20182;-93
2022/06/05 11:23:40;;;;;;;3.20;2.40;;;25.50;84.70;;;;;;5032328;28;20194;-88
2022/06/05 11:26:21;;;;;;;3.88;2.30;;;25.50;84.10;;;;;;5024758;28;20186;-88
2022/06/05 11:29:12;;;;;;;2.58;2.38;;;25.60;85.40;;;;;;5032822;28;20194;-88
2022/06/05 11:32:08;;;;;;;2.50;2.30;;;25.70;84.30;;;;;;5014326;28;20548;-86
2022/06/05 11:34:50;;;;;;;2.60;2.17;;;25.70;84.30;;;;;;5034600;28;20179;-96
2022/06/05 11:37:16;;;;;;;6.85;2.60;;;25.80;84.80;;;;;;5031857;28;20186;-91
2022/06/05 11:40:22;;;;;;;2.97;2.25;;;25.90;84.40;;;;;;5033469;28;20209;-90
2022/06/05 11:43:20;;;;;;;2.47;2.03;;;26.00;83.90;;;;;;5032587;28;20187;-94
2022/06/05 11:46:04;;;;;;;2.30;2.10;;;26.30;84.30;;;;;;5033103;28;20796;-86
2022/06/05 11:48:53;;;;;;;4.45;2.35;;;26.50;83.60;;;;;;5034637;28;20178;-87
2022/06/05 11:51:46;;;;;;;5.55;2.20;;;26.60;83.90;;;;;;5032981;28;20267;-91
2022/06/05 11:54:36;;;;;;;3.85;2.30;;;26.60;86.50;;;;;;5023336;28;20193;-88
2022/06/05 11:57:21;;;;;;;4.57;2.50;;;26.70;83.20;;;;;;5026704;28;20193;-85
2022/06/05 11:59:46;;;;;;;2.55;2.00;;;26.80;82.10;;;;;;5013440;28;20221;-86
2022/06/05 12:02:24;;;;;;;2.67;2.10;;;26.90;81.60;;;;;;5033767;28;20187;-86
2022/06/05 12:05:06;;;;;;;2.20;2.00;;;26.90;80.40;;;;;;5035903;28;20190;-88
2022/06/05 12:07:32;;;;;;;2.35;2.15;;;27.00;82.20;;;;;;5021896;28;20263;-90
2022/06/05 12:10:06;;;;;;;2.53;1.85;;;27.20;83.70;;;;;;5045709;28;20191;-90
2022/06/05 12:12:42;;;;;;;3.22;2.20;;;27.40;81.60;;;;;;5035466;28;20182;-87
2022/06/05 12:15:13;;;;;;;2.47;2.15;;;27.50;80.00;;;;;;5037238;28;20217;-87
2022/06/05 12:18:00;;;;;;;3.13;2.05;;;27.60;79.50;;;;;;5037674;28;20183;-90
2022/06/05 12:20:52;;;;;;;2.05;1.85;;;27.70;80.30;;;;;;5033317;28;20265;-87
2022/06/05 12:23:36;;;;;;;3.08;1.98;;;27.90;80.00;;;;;;5036351;28;20182;-89
2022/06/05 12:26:14;;;;;;;2.47;2.05;;;27.90;79.30;;;;;;5033186;28;20186;-85
2022/06/05 12:29:01;;;;;;;1.80;1.70;;;27.80;79.70;;;;;;5049187;28;20179;-89
2022/06/05 12:31:39;;;;;;;3.92;1.90;;;27.90;78.00;;;;;;5030971;28;20232;-90
2022/06/05 12:34:14;;;;;;;2.85;1.90;;;27.90;79.40;;;;;;5036056;28;20185;-85
2022/06/05 12:37:02;;;;;;;3.70;2.22;;;27.80;77.20;;;;;;5034270;28;20300;-86
2022/06/05 12:39:44;;;;;;;2.70;1.90;;;27.80;77.40;;;;;;5036358;28;20228;-88
2022/06/05 12:42:15;;;;;;;4.40;1.83;;;27.70;79.00;;;;;;5035326;28;20190;-88
2022/06/05 12:44:47;;;;;;;2.55;2.10;;;27.70;77.60;;;;;;5033785;28;20190;-85
2022/06/05 12:47:40;;;;;;;2.10;1.90;;;27.60;79.20;;;;;;5036675;28;20636;-86
2022/06/05 12:50:36;;;;;;;2.17;1.98;;;27.40;76.70;;;;;;5035318;28;20276;-90
2022/06/05 12:53:10;;;;;;;2.20;2.00;;;27.30;78.70;;;;;;5035348;28;20198;-87
2022/06/05 12:55:44;;;;;;;2.15;1.90;;;27.40;79.30;;;;;;5035875;28;20683;-87
2022/06/05 12:58:10;;;;;;;3.38;2.20;;;27.30;79.00;;;;;;5037283;28;20271;-87
2022/06/05 13:00:54;;;;;;;1.75;1.65;;;27.40;79.60;;;;;;5032953;28;20199;-89
2022/06/05 13:03:20;;;;;;;2.22;1.90;;;27.30;76.70;;;;;;5034679;28;20186;-89
2022/06/05 13:06:02;;;;;;;3.17;2.05;;;27.30;79.10;;;;;;5035118;28;20193;-87
2022/06/05 13:08:47;;;;;;;2.08;1.88;;;27.30;78.70;;;;;;5035936;28;20522;-88
2022/06/05 13:11:21;;;;;;;2.50;2.30;;;27.30;78.50;;;;;;5032937;28;20205;-89
2022/06/05 13:14:14;;;;;;;3.30;1.90;;;27.30;78.00;;;;;;5033621;28;20178;-83
2022/06/05 13:16:51;;;;;;;3.22;1.75;;;27.30;77.80;;;;;;5032948;28;20206;-88
2022/06/05 13:19:23;;;;;;;3.13;1.88;;;27.40;81.20;;;;;;5031734;28;20174;-83
2022/06/05 13:22:17;;;;;;;2.45;2.05;;;27.40;77.30;;;;;;5033015;28;20182;-85
2022/06/05 13:24:52;;;;;;;2.42;1.65;;;27.40;78.10;;;;;;5023288;28;20179;-87
2022/06/05 13:27:56;;;;;;;2.55;1.92;;;27.40;79.40;;;;;;5032966;28;20182;-85
2022/06/05 13:30:25;;;;;;;3.38;2.38;;;27.30;79.20;;;;;;5034964;28;20170;-87
2022/06/05 13:33:02;;;;;;;2.83;2.00;;;27.20;78.80;;;;;;5032864;28;20182;-86
2022/06/05 13:35:37;;;;;;;4.53;2.05;;;27.20;79.20;;;;;;5051609;28;20315;-87
2022/06/05 13:38:22;;;;;;;3.00;2.22;;;27.10;79.20;;;;;;5031864;28;20182;-86
2022/06/05 13:41:08;;;;;;;3.20;2.13;;;27.00;78.20;;;;;;5030243;28;20186;-86
2022/06/05 13:43:40;;;;;;;2.20;1.73;;;26.80;77.40;;;;;;5031636;28;20313;-85